createdAt,value
2023-04-15T00:00:39.490Z,605.2
2023-04-15T00:01:41.452Z,605.1
2023-04-15T00:02:43.853Z,605.3
2023-04-15T00:03:46.587Z,605.6
2023-04-15T00:04:49.151Z,605.4
2023-04-15T00:05:51.196Z,605.1
2023-04-15T00:06:52.996Z,605
2023-04-15T00:07:54.906Z,605
2023-04-15T00:08:56.830Z,605.5
2023-04-15T00:09:58.706Z,605.2
2023-04-15T00:11:00.559Z,604.8
2023-04-15T00:12:02.503Z,604.9
2023-04-15T00:13:04.261Z,604.8
2023-04-15T00:14:06.105Z,604.7
2023-04-15T00:15:08.085Z,604
2023-04-15T00:16:10.073Z,603.8
2023-04-15T00:17:11.967Z,603.8
2023-04-15T00:18:13.918Z,604.4
2023-04-15T00:19:15.664Z,604.2
2023-04-15T00:20:17.515Z,603.3
2023-04-15T00:21:19.368Z,603.4
2023-04-15T00:22:21.220Z,602.8
2023-04-15T00:23:23.059Z,603.2
2023-04-15T00:24:24.836Z,603
2023-04-15T00:25:26.764Z,602.2
2023-04-15T00:26:28.513Z,601.6
2023-04-15T00:27:30.357Z,600.8
2023-04-15T00:28:32.216Z,600.4
2023-04-15T00:29:33.996Z,600.8
2023-04-15T00:30:35.955Z,601.5
2023-04-15T00:31:37.867Z,602.1
2023-04-15T00:32:39.983Z,602.9
2023-04-15T00:33:41.819Z,603.3
2023-04-15T00:34:43.510Z,603.2
2023-04-15T00:35:45.302Z,603
2023-04-15T00:36:47.227Z,602.8
2023-04-15T00:37:48.969Z,602.9
2023-04-15T00:38:50.909Z,603
2023-04-15T00:39:52.875Z,603.1
2023-04-15T00:40:54.720Z,603.3
2023-04-15T00:41:56.565Z,603
2023-04-15T00:42:58.359Z,602.6
2023-04-15T00:44:00.275Z,602.2
2023-04-15T00:45:02.124Z,602.1
2023-04-15T00:46:04.452Z,601.8
2023-04-15T00:47:06.436Z,601.7
2023-04-15T00:48:08.376Z,601.6
2023-04-15T00:49:10.333Z,601.7
2023-04-15T00:50:12.290Z,601.5
2023-04-15T00:51:14.135Z,601.4
2023-04-15T00:52:15.883Z,600.7
2023-04-15T00:53:17.839Z,599.8
2023-04-15T00:54:19.690Z,600.6
2023-04-15T00:55:21.551Z,600.2
2023-04-15T00:56:23.318Z,601
2023-04-15T00:57:25.065Z,601.2
2023-04-15T00:58:26.777Z,601.5
2023-04-15T00:59:28.739Z,601.4
2023-04-15T01:00:30.795Z,601.2
2023-04-15T01:01:32.912Z,601.1
2023-04-15T01:02:35.266Z,600.9
2023-04-15T01:03:38.385Z,600.7
2023-04-15T01:04:40.447Z,600.4
2023-04-15T01:05:42.299Z,600.3
2023-04-15T01:06:44.149Z,600.5
2023-04-15T01:07:45.987Z,600.5
2023-04-15T01:08:47.845Z,600.4
2023-04-15T01:09:49.539Z,600.3
2023-04-15T01:10:51.615Z,600.2
2023-04-15T01:11:53.489Z,600
2023-04-15T01:12:55.240Z,600.5
2023-04-15T01:13:57.086Z,601
2023-04-15T01:14:59.050Z,601.1
2023-04-15T01:16:01.330Z,601.4
2023-04-15T01:17:03.322Z,601.2
2023-04-15T01:18:05.527Z,601.6
2023-04-15T01:19:07.466Z,601.5
2023-04-15T01:20:09.223Z,601.8
2023-04-15T01:21:11.173Z,601.6
2023-04-15T01:22:13.021Z,602
2023-04-15T01:23:15.053Z,602.2
2023-04-15T01:24:17.022Z,602.4
2023-04-15T01:25:18.976Z,602.4
2023-04-15T01:26:20.826Z,602.4
2023-04-15T01:27:22.679Z,602.3
2023-04-15T01:28:24.626Z,602.5
2023-04-15T01:29:26.459Z,602.9
2023-04-15T01:30:28.324Z,602.7
2023-04-15T01:31:30.292Z,602.4
2023-04-15T01:32:32.497Z,602.1
2023-04-15T01:33:34.489Z,601.9
2023-04-15T01:34:36.652Z,601.7
2023-04-15T01:35:38.447Z,601.6
2023-04-15T01:36:40.182Z,601.7
2023-04-15T01:37:41.994Z,601.7
2023-04-15T01:38:43.946Z,601.4
2023-04-15T01:39:45.701Z,601.8
2023-04-15T01:40:47.459Z,601.6
2023-04-15T01:41:49.404Z,601.3
2023-04-15T01:42:51.252Z,601.6
2023-04-15T01:43:53.306Z,601.7
2023-04-15T01:44:55.154Z,601.5
2023-04-15T01:45:56.896Z,601.8
2023-04-15T01:46:59.309Z,601.8
2023-04-15T01:48:01.604Z,602
2023-04-15T01:49:03.812Z,601.9
2023-04-15T01:50:05.739Z,602.4
2023-04-15T01:51:07.685Z,602.1
2023-04-15T01:52:09.536Z,601.8
2023-04-15T01:53:11.386Z,602.4
2023-04-15T01:54:13.338Z,602.2
2023-04-15T01:55:15.199Z,602
2023-04-15T01:56:17.674Z,602.2
2023-04-15T01:57:19.443Z,601.9
2023-04-15T01:58:21.265Z,601.9
2023-04-15T01:59:23.204Z,601.8
2023-04-15T02:00:25.066Z,601.5
2023-04-15T02:01:27.346Z,601.7
2023-04-15T02:02:29.716Z,601.6
2023-04-15T02:03:32.114Z,602
2023-04-15T02:04:33.992Z,601.5
2023-04-15T02:05:35.843Z,601.5
2023-04-15T02:06:37.597Z,601.9
2023-04-15T02:07:39.542Z,601.5
2023-04-15T02:08:41.406Z,601.6
2023-04-15T02:09:43.254Z,601.4
2023-04-15T02:10:45.102Z,601.3
2023-04-15T02:11:46.949Z,601
2023-04-15T02:12:48.881Z,600.7
2023-04-15T02:13:50.912Z,600.8
2023-04-15T02:14:52.810Z,600.5
2023-04-15T02:15:54.586Z,600.5
2023-04-15T02:16:56.585Z,600.7
2023-04-15T02:17:58.695Z,600.5
2023-04-15T02:19:01.812Z,600.6
2023-04-15T02:20:03.804Z,600.7
2023-04-15T02:21:05.649Z,601.4
2023-04-15T02:22:07.353Z,601.1
2023-04-15T02:23:09.249Z,601.5
2023-04-15T02:24:11.100Z,601.5
2023-04-15T02:25:15.545Z,601.9
2023-04-15T02:26:17.370Z,601.9
2023-04-15T02:27:19.200Z,602.6
2023-04-15T02:28:21.051Z,603
2023-04-15T02:29:23.010Z,603.3
2023-04-15T02:30:24.746Z,602.6
2023-04-15T02:31:26.755Z,602.8
2023-04-15T02:32:28.705Z,602.3
2023-04-15T02:33:30.610Z,602.5
2023-04-15T02:34:32.585Z,602.7
2023-04-15T02:35:34.512Z,603
2023-04-15T02:36:36.369Z,602.9
2023-04-15T02:37:38.223Z,603
2023-04-15T02:38:40.010Z,603.2
2023-04-15T02:39:41.810Z,603
2023-04-15T02:40:43.669Z,602.9
2023-04-15T02:41:45.513Z,602.9
2023-04-15T02:42:47.288Z,602.8
2023-04-15T02:43:49.221Z,602.9
2023-04-15T02:44:51.069Z,602.8
2023-04-15T02:45:53.372Z,602.7
2023-04-15T02:46:55.280Z,602.3
2023-04-15T02:47:57.258Z,602.2
2023-04-15T02:49:00.287Z,601.6
2023-04-15T02:50:02.480Z,601.9
2023-04-15T02:51:04.413Z,601.6
2023-04-15T02:52:06.271Z,601.6
2023-04-15T02:53:08.120Z,601.3
2023-04-15T02:54:10.062Z,601.3
2023-04-15T02:55:11.820Z,601.6
2023-04-15T02:56:13.657Z,601.8
2023-04-15T02:57:15.518Z,601.9
2023-04-15T02:58:17.359Z,601.6
2023-04-15T02:59:19.223Z,601.6
2023-04-15T03:00:21.059Z,601.4
2023-04-15T03:01:23.047Z,601.6
2023-04-15T03:02:25.690Z,601.7
2023-04-15T03:03:27.950Z,601.7
2023-04-15T03:04:29.902Z,601.3
2023-04-15T03:05:31.793Z,600.9
2023-04-15T03:06:33.800Z,600.6
2023-04-15T03:07:35.759Z,600.3
2023-04-15T03:08:37.710Z,599.9
2023-04-15T03:09:39.561Z,599.9
2023-04-15T03:10:41.532Z,599.8
2023-04-15T03:11:43.355Z,599.5
2023-04-15T03:12:45.206Z,599.8
2023-04-15T03:13:47.164Z,600
2023-04-15T03:14:49.115Z,599.6
2023-04-15T03:15:51.290Z,599.9
2023-04-15T03:16:53.348Z,599.8
2023-04-15T03:17:55.411Z,600
2023-04-15T03:18:57.236Z,600.1
2023-04-15T03:19:59.303Z,599.5
2023-04-15T03:21:01.157Z,599.6
2023-04-15T03:22:03.087Z,599.1
2023-04-15T03:23:04.847Z,598.6
2023-04-15T03:24:06.785Z,598.4
2023-04-15T03:25:08.633Z,598.5
2023-04-15T03:26:10.586Z,598.6
2023-04-15T03:27:12.258Z,598.7
2023-04-15T03:28:14.092Z,599.1
2023-04-15T03:29:15.829Z,599.4
2023-04-15T03:30:17.681Z,599.7
2023-04-15T03:31:19.796Z,599
2023-04-15T03:32:21.905Z,598.1
2023-04-15T03:33:23.753Z,597.4
2023-04-15T03:34:25.699Z,596.7
2023-04-15T03:35:27.451Z,597.3
2023-04-15T03:36:29.326Z,597.6
2023-04-15T03:37:31.141Z,598.4
2023-04-15T03:38:32.921Z,598.9
2023-04-15T03:39:34.741Z,599.1
2023-04-15T03:40:36.593Z,598.8
2023-04-15T03:41:38.559Z,597.7
2023-04-15T03:42:40.326Z,597
2023-04-15T03:43:42.088Z,596.6
2023-04-15T03:44:43.891Z,596.1
2023-04-15T03:45:45.645Z,596.6
2023-04-15T03:46:48.001Z,597.3
2023-04-15T03:47:50.184Z,596.8
2023-04-15T03:48:52.111Z,596.4
2023-04-15T03:49:53.997Z,595.7
2023-04-15T03:50:55.807Z,595.5
2023-04-15T03:51:57.784Z,595.2
2023-04-15T03:52:59.621Z,595.6
2023-04-15T03:54:01.579Z,595.5
2023-04-15T03:55:03.417Z,595.9
2023-04-15T03:56:05.271Z,595.7
2023-04-15T03:57:07.130Z,595.5
2023-04-15T03:58:08.869Z,595.5
2023-04-15T03:59:10.824Z,595.5
2023-04-15T04:00:12.665Z,595.5
2023-04-15T04:01:14.516Z,595.6
2023-04-15T04:02:16.847Z,596
2023-04-15T04:03:19.849Z,596.2
2023-04-15T04:04:22.513Z,596.6
2023-04-15T04:05:24.376Z,597.1
2023-04-15T04:06:26.230Z,596.6
2023-04-15T04:07:28.095Z,595.9
2023-04-15T04:08:29.928Z,595.2
2023-04-15T04:09:31.796Z,594.6
2023-04-15T04:10:33.600Z,594.4
2023-04-15T04:11:35.369Z,594.6
2023-04-15T04:12:37.221Z,594.5
2023-04-15T04:13:39.180Z,594.8
2023-04-15T04:14:41.123Z,594.9
2023-04-15T04:15:42.988Z,595.3
2023-04-15T04:16:45.065Z,595.4
2023-04-15T04:17:47.164Z,595.4
2023-04-15T04:18:49.153Z,595.1
2023-04-15T04:19:50.997Z,595.1
2023-04-15T04:20:52.847Z,594.9
2023-04-15T04:21:54.585Z,594.6
2023-04-15T04:22:56.470Z,594.7
2023-04-15T04:23:58.395Z,594.8
2023-04-15T04:25:00.346Z,594.4
2023-04-15T04:26:02.261Z,594.8
2023-04-15T04:27:04.145Z,594.6
2023-04-15T04:28:06.008Z,594.8
2023-04-15T04:29:07.947Z,594.7
2023-04-15T04:30:09.588Z,594.7
2023-04-15T04:31:11.449Z,595
2023-04-15T04:32:13.511Z,594.9
2023-04-15T04:33:15.269Z,595.1
2023-04-15T04:34:17.412Z,594.7
2023-04-15T04:35:19.272Z,594.8
2023-04-15T04:36:21.212Z,594.5
2023-04-15T04:37:23.062Z,594.8
2023-04-15T04:38:24.932Z,594.7
2023-04-15T04:39:26.859Z,594.8
2023-04-15T04:40:28.916Z,594.6
2023-04-15T04:41:30.654Z,594.4
2023-04-15T04:42:32.341Z,594.1
2023-04-15T04:43:34.162Z,594.5
2023-04-15T04:44:36.016Z,594.3
2023-04-15T04:45:37.966Z,594.3
2023-04-15T04:46:39.694Z,593.7
2023-04-15T04:47:41.566Z,593.5
2023-04-15T04:48:47.270Z,593.8
2023-04-15T04:49:49.148Z,593.5
2023-04-15T04:50:50.987Z,593.4
2023-04-15T04:51:52.845Z,593.1
2023-04-15T04:52:54.632Z,593.3
2023-04-15T04:53:56.462Z,593.3
2023-04-15T04:54:58.394Z,593.3
2023-04-15T04:56:00.349Z,593.4
2023-04-15T04:57:02.194Z,592.9
2023-04-15T04:58:04.058Z,592.9
2023-04-15T04:59:05.895Z,592.8
2023-04-15T05:00:07.745Z,592.6
2023-04-15T05:01:09.808Z,592.6
2023-04-15T05:02:11.980Z,592.5
2023-04-15T05:03:14.497Z,592.4
2023-04-15T05:04:16.967Z,592.1
2023-04-15T05:05:18.833Z,592.1
2023-04-15T05:06:20.688Z,592
2023-04-15T05:07:22.536Z,591.6
2023-04-15T05:08:24.396Z,591.3
2023-04-15T05:09:26.268Z,591.1
2023-04-15T05:10:28.191Z,591.1
2023-04-15T05:11:30.040Z,591.2
2023-04-15T05:12:31.795Z,590.9
2023-04-15T05:13:33.578Z,590.5
2023-04-15T05:14:35.402Z,590.3
2023-04-15T05:15:37.458Z,589.9
2023-04-15T05:16:39.406Z,589.9
2023-04-15T05:17:41.382Z,589.6
2023-04-15T05:18:43.212Z,589.4
2023-04-15T05:19:45.059Z,589.4
2023-04-15T05:20:46.796Z,589.3
2023-04-15T05:21:48.756Z,589.5
2023-04-15T05:22:50.605Z,589.7
2023-04-15T05:23:52.456Z,589.7
2023-04-15T05:24:54.324Z,589.4
2023-04-15T05:25:56.249Z,589
2023-04-15T05:26:58.211Z,589.1
2023-04-15T05:28:00.059Z,589.1
2023-04-15T05:29:03.450Z,588.9
2023-04-15T05:30:05.389Z,589
2023-04-15T05:31:07.360Z,589
2023-04-15T05:32:09.296Z,588.8
2023-04-15T05:33:11.055Z,588.9
2023-04-15T05:34:13.108Z,589.3
2023-04-15T05:35:14.964Z,588.9
2023-04-15T05:36:16.807Z,589.4
2023-04-15T05:37:18.752Z,589.7
2023-04-15T05:38:20.702Z,590.2
2023-04-15T05:39:22.554Z,590
2023-04-15T05:40:24.551Z,589.8
2023-04-15T05:41:26.365Z,589.6
2023-04-15T05:42:28.216Z,589.5
2023-04-15T05:43:30.159Z,589.6
2023-04-15T05:44:31.915Z,589.6
2023-04-15T05:45:33.687Z,589.5
2023-04-15T05:46:36.136Z,589.3
2023-04-15T05:47:38.332Z,589.3
2023-04-15T05:48:40.521Z,589.3
2023-04-15T05:49:42.386Z,589.4
2023-04-15T05:50:44.243Z,589.3
2023-04-15T05:51:46.187Z,589.1
2023-04-15T05:52:48.035Z,589.1
2023-04-15T05:53:49.896Z,589.3
2023-04-15T05:54:51.746Z,589.3
2023-04-15T05:55:53.722Z,589.4
2023-04-15T05:56:55.651Z,589.3
2023-04-15T05:57:57.490Z,589.1
2023-04-15T05:59:00.043Z,589.3
2023-04-15T06:00:02.224Z,588.7
2023-04-15T06:01:04.072Z,588.9
2023-04-15T06:02:06.066Z,588.4
2023-04-15T06:03:08.433Z,588.1
2023-04-15T06:04:10.868Z,587.8
2023-04-15T06:05:12.697Z,587.7
2023-04-15T06:06:14.763Z,587.7
2023-04-15T06:07:16.628Z,588
2023-04-15T06:08:18.447Z,588.4
2023-04-15T06:09:21.025Z,588.2
2023-04-15T06:10:22.879Z,588.4
2023-04-15T06:11:24.762Z,588.2
2023-04-15T06:12:26.679Z,588.1
2023-04-15T06:13:28.530Z,588.3
2023-04-15T06:14:30.380Z,588
2023-04-15T06:15:32.227Z,588.4
2023-04-15T06:16:34.290Z,588
2023-04-15T06:17:36.358Z,588
2023-04-15T06:18:38.289Z,588.5
2023-04-15T06:19:40.039Z,588
2023-04-15T06:20:41.899Z,588.2
2023-04-15T06:21:43.658Z,587.9
2023-04-15T06:22:45.582Z,588
2023-04-15T06:23:47.434Z,587.7
2023-04-15T06:24:49.282Z,587.4
2023-04-15T06:25:51.128Z,587.4
2023-04-15T06:26:53.018Z,587.5
2023-04-15T06:27:54.839Z,587.6
2023-04-15T06:28:56.780Z,587.8
2023-04-15T06:29:58.539Z,588
2023-04-15T06:31:00.492Z,588
2023-04-15T06:32:02.337Z,588.4
2023-04-15T06:33:04.515Z,588.5
2023-04-15T06:34:06.426Z,588.5
2023-04-15T06:35:08.313Z,587.9
2023-04-15T06:36:10.252Z,587.4
2023-04-15T06:37:12.102Z,587.1
2023-04-15T06:38:13.955Z,586.7
2023-04-15T06:39:15.734Z,586.4
2023-04-15T06:40:17.542Z,586.3
2023-04-15T06:41:19.508Z,586.2
2023-04-15T06:42:21.365Z,586.5
2023-04-15T06:43:23.304Z,586.2
2023-04-15T06:44:25.154Z,585.9
2023-04-15T06:45:27.233Z,585.9
2023-04-15T06:46:29.055Z,585.7
2023-04-15T06:47:31.331Z,585.7
2023-04-15T06:48:33.092Z,585.4
2023-04-15T06:49:34.806Z,584.9
2023-04-15T06:50:36.764Z,585.3
2023-04-15T06:51:38.508Z,585.6
2023-04-15T06:52:40.379Z,585.1
2023-04-15T06:53:42.234Z,585.3
2023-04-15T06:54:44.057Z,584.8
2023-04-15T06:55:45.914Z,585.1
2023-04-15T06:56:47.865Z,585
2023-04-15T06:57:49.738Z,585
2023-04-15T06:58:51.659Z,585.4
2023-04-15T06:59:53.509Z,585
2023-04-15T07:00:55.382Z,584.8
2023-04-15T07:01:57.524Z,584.6
2023-04-15T07:02:59.391Z,584.5
2023-04-15T07:04:01.361Z,584.3
2023-04-15T07:05:03.073Z,584.4
2023-04-15T07:06:04.921Z,584.3
2023-04-15T07:07:06.877Z,584.3
2023-04-15T07:08:08.649Z,584.5
2023-04-15T07:09:10.481Z,584.4
2023-04-15T07:10:12.436Z,584.5
2023-04-15T07:11:14.286Z,584.9
2023-04-15T07:12:16.227Z,584.2
2023-04-15T07:13:18.109Z,584.6
2023-04-15T07:14:20.039Z,584.2
2023-04-15T07:15:21.929Z,583.8
2023-04-15T07:16:23.874Z,583.8
2023-04-15T07:17:26.015Z,583.9
2023-04-15T07:18:27.833Z,583.8
2023-04-15T07:19:29.692Z,584.4
2023-04-15T07:20:31.447Z,584.6
2023-04-15T07:21:33.281Z,584.8
2023-04-15T07:22:35.247Z,584.9
2023-04-15T07:23:37.083Z,585.2
2023-04-15T07:24:38.943Z,585.2
2023-04-15T07:25:40.706Z,585.1
2023-04-15T07:26:42.544Z,585.2
2023-04-15T07:27:44.337Z,585.2
2023-04-15T07:28:46.156Z,584.7
2023-04-15T07:29:47.996Z,584.9
2023-04-15T07:30:50.246Z,584.4
2023-04-15T07:31:52.096Z,584.1
2023-04-15T07:32:54.169Z,584.4
2023-04-15T07:33:56.098Z,584.3
2023-04-15T07:34:57.949Z,584.4
2023-04-15T07:35:59.810Z,584.1
2023-04-15T07:37:01.652Z,584.3
2023-04-15T07:38:03.513Z,584.5
2023-04-15T07:39:05.360Z,584.4
2023-04-15T07:40:07.174Z,584.8
2023-04-15T07:41:09.058Z,584.9
2023-04-15T07:42:10.899Z,584.9
2023-04-15T07:43:12.792Z,584.5
2023-04-15T07:44:14.941Z,584.7
2023-04-15T07:45:16.878Z,584.5
2023-04-15T07:46:19.027Z,584.5
2023-04-15T07:47:20.898Z,584.4
2023-04-15T07:48:22.717Z,584.4
2023-04-15T07:49:24.577Z,584.1
2023-04-15T07:50:26.419Z,583.6
2023-04-15T07:51:28.166Z,583.7
2023-04-15T07:52:30.043Z,583.7
2023-04-15T07:53:31.869Z,584
2023-04-15T07:54:33.831Z,583.7
2023-04-15T07:55:35.779Z,583.6
2023-04-15T07:56:37.659Z,583.7
2023-04-15T07:57:39.479Z,583.6
2023-04-15T07:58:41.432Z,583.5
2023-04-15T07:59:43.303Z,583.3
2023-04-15T08:00:45.029Z,583.3
2023-04-15T08:01:47.101Z,582.8
2023-04-15T08:02:49.760Z,582.7
2023-04-15T08:03:52.373Z,582.5
2023-04-15T08:04:54.673Z,583
2023-04-15T08:05:56.527Z,583
2023-04-15T08:06:58.386Z,583.2
2023-04-15T08:08:00.225Z,583.1
2023-04-15T08:09:03.226Z,582.9
2023-04-15T08:10:05.167Z,583
2023-04-15T08:11:07.209Z,583.1
2023-04-15T08:12:09.068Z,582.9
2023-04-15T08:13:11.018Z,583
2023-04-15T08:14:12.858Z,583.2
2023-04-15T08:15:14.844Z,583.2
2023-04-15T08:16:16.968Z,583.2
2023-04-15T08:17:18.940Z,583
2023-04-15T08:18:20.880Z,583.1
2023-04-15T08:19:22.633Z,582.8
2023-04-15T08:20:24.472Z,582.8
2023-04-15T08:21:26.206Z,583.4
2023-04-15T08:22:28.172Z,583.3
2023-04-15T08:23:29.917Z,583.4
2023-04-15T08:24:31.850Z,583.4
2023-04-15T08:25:33.660Z,583.5
2023-04-15T08:26:35.580Z,583.4
2023-04-15T08:27:37.419Z,583.6
2023-04-15T08:28:39.277Z,583.5
2023-04-15T08:29:41.127Z,583.2
2023-04-15T08:30:43.004Z,583.5
2023-04-15T08:31:45.162Z,583.3
2023-04-15T08:32:47.617Z,583.6
2023-04-15T08:33:49.451Z,583.9
2023-04-15T08:34:51.290Z,583.9
2023-04-15T08:35:53.146Z,584
2023-04-15T08:36:54.997Z,584.2
2023-04-15T08:37:56.927Z,584.1
2023-04-15T08:38:58.807Z,584
2023-04-15T08:40:00.644Z,584
2023-04-15T08:41:02.496Z,584.2
2023-04-15T08:42:04.456Z,584.3
2023-04-15T08:43:06.396Z,584.3
2023-04-15T08:44:08.250Z,584.2
2023-04-15T08:45:10.034Z,584.2
2023-04-15T08:46:11.872Z,584.4
2023-04-15T08:47:13.802Z,584.4
2023-04-15T08:48:15.652Z,584.3
2023-04-15T08:49:17.618Z,584.5
2023-04-15T08:50:19.654Z,584.5
2023-04-15T08:51:25.295Z,584.9
2023-04-15T08:52:27.047Z,584.5
2023-04-15T08:53:28.983Z,584.7
2023-04-15T08:54:30.781Z,585
2023-04-15T08:55:32.596Z,584.6
2023-04-15T08:56:34.540Z,585.2
2023-04-15T08:57:36.295Z,585
2023-04-15T08:58:38.145Z,584.9
2023-04-15T08:59:40.096Z,584.9
2023-04-15T09:00:41.878Z,585.3
2023-04-15T09:01:44.053Z,585.5
2023-04-15T09:02:46.408Z,585.1
2023-04-15T09:03:48.992Z,585.5
2023-04-15T09:04:50.995Z,585.7
2023-04-15T09:05:53.963Z,586.1
2023-04-15T09:06:55.818Z,585.9
2023-04-15T09:07:57.775Z,586.2
2023-04-15T09:08:59.878Z,586.3
2023-04-15T09:10:01.920Z,586.3
2023-04-15T09:11:03.939Z,586.2
2023-04-15T09:12:05.780Z,586.5
2023-04-15T09:13:07.846Z,586.7
2023-04-15T09:14:09.702Z,586.9
2023-04-15T09:15:11.557Z,587.5
2023-04-15T09:16:13.515Z,587.7
2023-04-15T09:17:15.386Z,587.8
2023-04-15T09:18:18.118Z,587.9
2023-04-15T09:19:19.839Z,588
2023-04-15T09:20:21.717Z,588.3
2023-04-15T09:21:23.630Z,588.4
2023-04-15T09:22:25.521Z,588.7
2023-04-15T09:23:27.361Z,588.8
2023-04-15T09:24:29.233Z,588.7
2023-04-15T09:25:35.472Z,588.2
2023-04-15T09:26:37.429Z,588.3
2023-04-15T09:27:39.267Z,588.2
2023-04-15T09:28:41.196Z,588.4
2023-04-15T09:29:43.074Z,588.2
2023-04-15T09:30:45.018Z,587.9
2023-04-15T09:31:46.883Z,587.7
2023-04-15T09:32:48.915Z,587.6
2023-04-15T09:33:50.883Z,587.2
2023-04-15T09:34:52.655Z,587.1
2023-04-15T09:35:54.404Z,587.5
2023-04-15T09:36:56.337Z,587
2023-04-15T09:37:58.284Z,587.2
2023-04-15T09:39:00.141Z,587.5
2023-04-15T09:40:01.974Z,587.6
2023-04-15T09:41:03.837Z,587.6
2023-04-15T09:42:05.674Z,587.6
2023-04-15T09:43:07.545Z,587.9
2023-04-15T09:44:09.322Z,587.9
2023-04-15T09:45:11.131Z,587.8
2023-04-15T09:46:13.093Z,587.5
2023-04-15T09:47:14.927Z,587.6
2023-04-15T09:48:16.935Z,587.6
2023-04-15T09:49:19.189Z,587
2023-04-15T09:50:20.998Z,587.3
2023-04-15T09:51:22.837Z,586.9
2023-04-15T09:52:24.779Z,586.7
2023-04-15T09:53:26.758Z,586.9
2023-04-15T09:54:28.700Z,587.1
2023-04-15T09:55:30.542Z,587.2
2023-04-15T09:56:32.415Z,587
2023-04-15T09:57:34.249Z,586.9
2023-04-15T09:58:36.098Z,587.2
2023-04-15T09:59:38.160Z,587
2023-04-15T10:00:39.899Z,587.5
2023-04-15T10:01:42.120Z,587.9
2023-04-15T10:02:44.708Z,587.9
2023-04-15T10:03:47.143Z,587.9
2023-04-15T10:04:49.223Z,588.1
2023-04-15T10:05:51.188Z,588.1
2023-04-15T10:06:53.048Z,588.5
2023-04-15T10:07:54.933Z,588.6
2023-04-15T10:08:56.753Z,588.2
2023-04-15T10:09:58.601Z,588.4
2023-04-15T10:11:00.447Z,588.7
2023-04-15T10:12:02.297Z,588.8
2023-04-15T10:13:04.149Z,588.9
2023-04-15T10:14:05.927Z,589
2023-04-15T10:15:07.859Z,589.3
2023-04-15T10:16:10.126Z,589.4
2023-04-15T10:17:12.173Z,590
2023-04-15T10:18:14.015Z,590.1
2023-04-15T10:19:15.793Z,590
2023-04-15T10:20:17.684Z,590.3
2023-04-15T10:21:19.676Z,590.2
2023-04-15T10:22:21.519Z,590.4
2023-04-15T10:23:23.382Z,590.5
2023-04-15T10:24:25.222Z,590.7
2023-04-15T10:25:27.175Z,590.4
2023-04-15T10:26:28.969Z,590.1
2023-04-15T10:27:30.713Z,590.2
2023-04-15T10:28:32.513Z,590.5
2023-04-15T10:29:34.377Z,590.5
2023-04-15T10:30:36.314Z,590.4
2023-04-15T10:31:38.723Z,591.2
2023-04-15T10:32:40.755Z,590.8
2023-04-15T10:33:42.586Z,590.5
2023-04-15T10:34:44.466Z,590.4
2023-04-15T10:35:46.387Z,590.1
2023-04-15T10:36:48.244Z,590.2
2023-04-15T10:37:50.091Z,590.4
2023-04-15T10:38:52.051Z,590.5
2023-04-15T10:39:53.831Z,590.9
2023-04-15T10:40:55.645Z,591.3
2023-04-15T10:41:57.501Z,591
2023-04-15T10:42:59.241Z,591.5
2023-04-15T10:44:02.444Z,591.1
2023-04-15T10:45:04.466Z,591.8
2023-04-15T10:46:06.445Z,591.4
2023-04-15T10:47:08.273Z,591.4
2023-04-15T10:48:10.455Z,591.3
2023-04-15T10:49:12.122Z,591.2
2023-04-15T10:50:14.159Z,591.6
2023-04-15T10:51:16.167Z,591.4
2023-04-15T10:52:17.957Z,591.4
2023-04-15T10:53:22.451Z,592
2023-04-15T10:54:24.292Z,591.8
2023-04-15T10:55:26.146Z,591.8
2023-04-15T10:56:27.994Z,591.8
2023-04-15T10:57:29.958Z,591.9
2023-04-15T10:58:31.808Z,592.5
2023-04-15T10:59:33.535Z,592.1
2023-04-15T11:00:35.412Z,592.3
2023-04-15T11:01:37.480Z,592.6
2023-04-15T11:02:40.292Z,592.5
2023-04-15T11:03:43.158Z,592.4
2023-04-15T11:04:45.157Z,592.1
2023-04-15T11:05:47.035Z,592.3
2023-04-15T11:06:48.950Z,592.3
2023-04-15T11:07:50.800Z,592.2
2023-04-15T11:08:52.651Z,592
2023-04-15T11:09:54.506Z,592
2023-04-15T11:10:56.352Z,592.1
2023-04-15T11:11:58.313Z,592.2
2023-04-15T11:13:00.253Z,592.1
2023-04-15T11:14:03.341Z,592.1
2023-04-15T11:15:08.460Z,592.3
2023-04-15T11:16:10.584Z,592.2
2023-04-15T11:17:12.568Z,591.8
2023-04-15T11:18:14.434Z,592.3
2023-04-15T11:19:16.285Z,592.2
2023-04-15T11:20:18.130Z,592.3
2023-04-15T11:21:20.009Z,592.3
2023-04-15T11:22:21.911Z,592.2
2023-04-15T11:23:23.872Z,592.2
2023-04-15T11:24:25.720Z,592.5
2023-04-15T11:25:27.781Z,592.7
2023-04-15T11:26:29.745Z,592.5
2023-04-15T11:27:31.514Z,592.4
2023-04-15T11:28:33.269Z,592.1
2023-04-15T11:29:35.096Z,592.3
2023-04-15T11:30:36.950Z,592.1
2023-04-15T11:31:39.012Z,592.4
2023-04-15T11:32:41.072Z,592.5
2023-04-15T11:33:43.094Z,592.2
2023-04-15T11:34:44.952Z,592.2
2023-04-15T11:35:46.794Z,592.7
2023-04-15T11:36:48.630Z,592.3
2023-04-15T11:37:50.511Z,592.2
2023-04-15T11:38:52.346Z,592.7
2023-04-15T11:39:54.195Z,592
2023-04-15T11:40:56.052Z,592.3
2023-04-15T11:41:58.003Z,592.6
2023-04-15T11:42:59.862Z,592.7
2023-04-15T11:44:02.909Z,593
2023-04-15T11:45:04.981Z,593.1
2023-04-15T11:46:07.070Z,593.2
2023-04-15T11:47:08.991Z,593.3
2023-04-15T11:48:10.953Z,593.2
2023-04-15T11:49:12.798Z,593.8
2023-04-15T11:50:14.649Z,593.6
2023-04-15T11:51:16.543Z,593.9
2023-04-15T11:52:18.367Z,593.9
2023-04-15T11:53:20.124Z,593.6
2023-04-15T11:54:22.044Z,593.4
2023-04-15T11:55:23.890Z,593.7
2023-04-15T11:56:25.747Z,594
2023-04-15T11:57:27.599Z,593.6
2023-04-15T11:58:29.322Z,594.3
2023-04-15T11:59:46.649Z,594.2
2023-04-15T12:00:48.510Z,594.6
2023-04-15T12:01:50.577Z,594.7
2023-04-15T12:02:53.184Z,594.7
2023-04-15T12:03:55.893Z,594.9
2023-04-15T12:04:57.980Z,594.9
2023-04-15T12:05:59.808Z,595
2023-04-15T12:07:01.594Z,594.9
2023-04-15T12:08:03.439Z,594.8
2023-04-15T12:09:05.355Z,594.7
2023-04-15T12:10:07.197Z,594.7
2023-04-15T12:11:08.954Z,594.6
2023-04-15T12:12:10.806Z,594.3
2023-04-15T12:13:12.654Z,594.5
2023-04-15T12:14:14.597Z,594.4
2023-04-15T12:15:16.455Z,594.6
2023-04-15T12:16:18.641Z,594.6
2023-04-15T12:17:20.660Z,594.5
2023-04-15T12:18:22.417Z,594.5
2023-04-15T12:19:24.383Z,594.8
2023-04-15T12:20:26.221Z,594.9
2023-04-15T12:21:28.172Z,594.6
2023-04-15T12:22:30.014Z,594.7
2023-04-15T12:23:31.988Z,594.6
2023-04-15T12:24:33.920Z,594.8
2023-04-15T12:25:35.804Z,594.5
2023-04-15T12:26:37.618Z,594.5
2023-04-15T12:27:39.465Z,594.6
2023-04-15T12:28:41.327Z,594.6
2023-04-15T12:29:43.372Z,594.4
2023-04-15T12:30:45.152Z,594.4
2023-04-15T12:31:47.502Z,594.4
2023-04-15T12:32:49.589Z,594.4
2023-04-15T12:33:51.431Z,594.2
2023-04-15T12:34:53.456Z,594.2
2023-04-15T12:35:55.304Z,594.2
2023-04-15T12:36:57.324Z,594
2023-04-15T12:37:59.205Z,593.7
2023-04-15T12:39:01.089Z,593.7
2023-04-15T12:40:03.133Z,593.6
2023-04-15T12:41:05.056Z,593.6
2023-04-15T12:42:06.913Z,593.9
2023-04-15T12:43:08.756Z,593.8
2023-04-15T12:44:10.610Z,593.3
2023-04-15T12:45:12.568Z,593.1
2023-04-15T12:46:14.521Z,593.1
2023-04-15T12:47:16.371Z,593.2
2023-04-15T12:48:18.428Z,593
2023-04-15T12:49:20.358Z,592.7
2023-04-15T12:50:22.234Z,592.6
2023-04-15T12:51:24.085Z,592.7
2023-04-15T12:52:26.034Z,593.1
2023-04-15T12:53:27.886Z,593
2023-04-15T12:54:29.766Z,593
2023-04-15T12:55:31.687Z,592.8
2023-04-15T12:56:33.523Z,593.1
2023-04-15T12:57:35.271Z,593.4
2023-04-15T12:58:37.140Z,593.5
2023-04-15T12:59:38.904Z,593.2
2023-04-15T13:00:40.725Z,593.3
2023-04-15T13:01:42.720Z,593.4
2023-04-15T13:02:45.313Z,593.4
2023-04-15T13:03:48.081Z,593.3
2023-04-15T13:04:50.182Z,593.4
2023-04-15T13:05:51.917Z,593.3
2023-04-15T13:06:53.564Z,593.4
2023-04-15T13:07:55.421Z,593.4
2023-04-15T13:08:59.731Z,593.3
2023-04-15T13:10:01.817Z,593.3
2023-04-15T13:11:03.655Z,593.5
2023-04-15T13:12:05.499Z,593.5
2023-04-15T13:13:07.259Z,593.8
2023-04-15T13:14:09.185Z,593.9
2023-04-15T13:15:11.042Z,594.2
2023-04-15T13:16:13.218Z,594.3
2023-04-15T13:17:15.040Z,594.3
2023-04-15T13:18:16.884Z,594.6
2023-04-15T13:19:18.730Z,594.3
2023-04-15T13:20:20.614Z,594.2
2023-04-15T13:21:22.533Z,594.6
2023-04-15T13:22:24.247Z,594.4
2023-04-15T13:23:26.063Z,594.5